Time;durP1;ratioP1;P1;durP2;ratioP2;P2;SDS_P1;SDS_P2;PMS_P1;PMS_P2;Temp;Humidity;BMP_temperature;BMP_pressure;BME280_temperature;BME280_humidity;BME280_pressure;Samples;Min_cycle;Max_cycle;Signal;HPM_P1;HPM_P2
2022/05/07 00:01:26;;;;;;;9.73;6.53;;;;;;;;;;7390192;19;20447;-77
2022/05/07 00:03:52;;;;;;;6.18;4.60;;;;;;;;;;7384915;19;20062;-78
2022/05/07 00:06:17;;;;;;;7.28;5.57;;;;;;;;;;7391891;19;20367;-78
2022/05/07 00:08:42;;;;;;;8.40;6.18;;;;;;;;;;7387345;19;20030;-77
2022/05/07 00:11:08;;;;;;;6.05;4.88;;;;;;;;;;7392885;19;20011;-78
2022/05/07 00:13:33;;;;;;;8.20;5.93;;;;;;;;;;7386354;19;20325;-77
2022/05/07 00:18:42;;;;;;;10.77;6.50;;;;;;;;;;7389321;19;20022;-78
2022/05/07 00:21:08;;;;;;;5.40;4.90;;;;;;;;;;7388176;19;20014;-78
2022/05/07 00:23:33;;;;;;;12.45;5.50;;;;;;;;;;7391453;19;20030;-77
2022/05/07 00:25:59;;;;;;;5.82;5.15;;;;;;;;;;7390039;19;22472;-77
2022/05/07 00:28:24;;;;;;;7.20;5.47;;;;;;;;;;7385364;19;20015;-78
2022/05/07 00:30:50;;;;;;;7.65;6.03;;;;;;;;;;7387605;19;20074;-77
2022/05/07 00:33:15;;;;;;;7.32;5.88;;;;;;;;;;7400618;19;20120;-78
2022/05/07 00:35:40;;;;;;;8.32;6.65;;;;;;;;;;7388544;19;20003;-77
2022/05/07 00:38:05;;;;;;;7.65;5.88;;;;;;;;;;7406722;19;20456;-78
2022/05/07 00:40:31;;;;;;;8.95;6.43;;;;;;;;;;7409758;19;20014;-78
2022/05/07 00:42:56;;;;;;;6.30;4.70;;;;;;;;;;7412611;19;20015;-78
2022/05/07 00:45:21;;;;;;;5.70;4.13;;;;;;;;;;7409821;19;20329;-77
2022/05/07 00:47:46;;;;;;;9.75;6.72;;;;;;;;;;7397642;19;20399;-77
2022/05/07 00:53:00;;;;;;;7.47;6.07;;;;;;;;;;7386262;19;20010;-77
2022/05/07 00:55:28;;;;;;;6.97;5.57;;;;;;;;;;7387722;19;20356;-78
2022/05/07 00:57:55;;;;;;;6.95;5.30;;;;;;;;;;7387174;19;20003;-77
2022/05/07 01:00:20;;;;;;;6.15;5.10;;;;;;;;;;7387521;19;20017;-77
2022/05/07 01:02:47;;;;;;;6.32;5.25;;;;;;;;;;7386477;19;20006;-78
2022/05/07 01:05:12;;;;;;;7.07;5.85;;;;;;;;;;7385295;19;20021;-77
2022/05/07 01:07:37;;;;;;;6.53;5.30;;;;;;;;;;7387853;19;20014;-78
2022/05/07 01:10:04;;;;;;;7.28;6.15;;;;;;;;;;7390158;19;20352;-78
2022/05/07 01:12:30;;;;;;;14.23;5.25;;;;;;;;;;7387098;19;20026;-77
2022/05/07 01:14:57;;;;;;;8.95;6.50;;;;;;;;;;7390194;19;20018;-77
2022/05/07 01:17:22;;;;;;;6.10;5.50;;;;;;;;;;7385096;19;20010;-77
2022/05/07 01:19:51;;;;;;;7.50;5.68;;;;;;;;;;7387501;19;20017;-77
2022/05/07 01:22:16;;;;;;;7.55;5.82;;;;;;;;;;7389440;19;20048;-78
2022/05/07 01:24:42;;;;;;;6.43;5.47;;;;;;;;;;7388375;19;20488;-77
2022/05/07 01:27:07;;;;;;;7.53;5.43;;;;;;;;;;7382411;19;20452;-77
2022/05/07 01:29:32;;;;;;;6.72;5.18;;;;;;;;;;7389033;19;20011;-77
2022/05/07 01:31:57;;;;;;;7.00;5.70;;;;;;;;;;7385192;19;20483;-78
2022/05/07 01:34:23;;;;;;;9.85;6.90;;;;;;;;;;7390529;19;20562;-78
2022/05/07 01:36:48;;;;;;;9.13;7.80;;;;;;;;;;7385215;19;20030;-78
2022/05/07 01:39:13;;;;;;;10.15;7.35;;;;;;;;;;7388541;19;20014;-77
2022/05/07 01:41:38;;;;;;;7.53;5.18;;;;;;;;;;7385113;19;20007;-78
2022/05/07 01:44:03;;;;;;;9.40;7.47;;;;;;;;;;7386398;19;20014;-78
2022/05/07 01:49:13;;;;;;;7.05;5.88;;;;;;;;;;7385069;19;20009;-77
2022/05/07 01:51:38;;;;;;;8.38;6.18;;;;;;;;;;7387412;19;20007;-78
2022/05/07 01:54:03;;;;;;;11.13;7.82;;;;;;;;;;7388898;19;20026;-78
2022/05/07 01:56:29;;;;;;;9.27;6.93;;;;;;;;;;7385403;19;20018;-78
2022/05/07 01:58:54;;;;;;;9.60;6.43;;;;;;;;;;7385208;19;20013;-77
2022/05/07 02:01:20;;;;;;;9.98;6.65;;;;;;;;;;7376086;19;20378;-77
2022/05/07 02:03:46;;;;;;;10.02;6.80;;;;;;;;;;7388674;19;20363;-77
2022/05/07 02:06:11;;;;;;;7.93;5.40;;;;;;;;;;7384504;19;20495;-78
2022/05/07 02:08:37;;;;;;;9.27;6.18;;;;;;;;;;7390221;19;20021;-78
2022/05/07 02:11:02;;;;;;;8.13;6.90;;;;;;;;;;7388003;19;20042;-78
2022/05/07 02:13:28;;;;;;;9.07;7.18;;;;;;;;;;7385287;19;20006;-77
2022/05/07 02:15:53;;;;;;;8.27;6.50;;;;;;;;;;7387476;19;20010;-78
2022/05/07 02:18:19;;;;;;;8.63;6.68;;;;;;;;;;7387811;19;20661;-78
2022/05/07 02:20:44;;;;;;;8.82;6.97;;;;;;;;;;7386215;19;20026;-77
2022/05/07 02:23:09;;;;;;;10.88;6.45;;;;;;;;;;7386191;19;20426;-78
2022/05/07 02:25:35;;;;;;;9.35;7.32;;;;;;;;;;7388449;19;20015;-78
2022/05/07 02:28:00;;;;;;;8.07;6.30;;;;;;;;;;7384720;19;20158;-77
2022/05/07 02:30:25;;;;;;;8.40;6.75;;;;;;;;;;7388912;19;20014;-78
2022/05/07 02:32:50;;;;;;;9.25;7.97;;;;;;;;;;7385123;19;20014;-78
2022/05/07 02:35:16;;;;;;;7.97;6.85;;;;;;;;;;7387587;19;20418;-78
2022/05/07 02:37:41;;;;;;;8.32;6.55;;;;;;;;;;7386216;19;20106;-77
2022/05/07 02:40:07;;;;;;;6.25;5.25;;;;;;;;;;7383680;19;20068;-77
2022/05/07 02:42:39;;;;;;;8.52;7.57;;;;;;;;;;7380979;19;20023;-77
2022/05/07 02:45:10;;;;;;;11.15;7.43;;;;;;;;;;7381912;19;20014;-78
2022/05/07 02:47:37;;;;;;;10.98;7.97;;;;;;;;;;7388305;19;20328;-78
2022/05/07 02:50:04;;;;;;;10.60;7.82;;;;;;;;;;7387129;19;20018;-77
2022/05/07 02:52:32;;;;;;;12.45;7.72;;;;;;;;;;7385329;19;20006;-77
2022/05/07 02:54:58;;;;;;;9.88;7.50;;;;;;;;;;7386642;19;20046;-77
2022/05/07 02:57:23;;;;;;;11.32;8.57;;;;;;;;;;7386659;19;20563;-77
2022/05/07 02:59:49;;;;;;;10.75;7.63;;;;;;;;;;7383827;19;20472;-78
2022/05/07 03:02:14;;;;;;;8.88;7.15;;;;;;;;;;7385388;19;20163;-78
2022/05/07 03:04:39;;;;;;;9.70;7.25;;;;;;;;;;7388290;19;20041;-78
2022/05/07 03:07:05;;;;;;;9.75;7.93;;;;;;;;;;7387760;19;19998;-77
2022/05/07 03:09:30;;;;;;;11.82;8.70;;;;;;;;;;7389197;19;20014;-78
2022/05/07 03:11:55;;;;;;;9.55;8.13;;;;;;;;;;7384046;19;20023;-77
2022/05/07 03:14:21;;;;;;;11.50;7.85;;;;;;;;;;7387107;19;20041;-78
2022/05/07 03:16:48;;;;;;;9.05;6.93;;;;;;;;;;7386540;19;20011;-77
2022/05/07 03:19:14;;;;;;;7.85;6.40;;;;;;;;;;7389006;19;20014;-78
2022/05/07 03:21:39;;;;;;;14.82;8.35;;;;;;;;;;7382966;19;20356;-78
2022/05/07 03:24:04;;;;;;;11.70;8.88;;;;;;;;;;7386080;19;20502;-77
2022/05/07 03:26:30;;;;;;;9.50;7.97;;;;;;;;;;7387884;19;20007;-77
2022/05/07 03:28:55;;;;;;;11.82;8.13;;;;;;;;;;7391336;19;20834;-77
2022/05/07 03:31:21;;;;;;;10.20;7.53;;;;;;;;;;7389661;19;20007;-77
2022/05/07 03:33:47;;;;;;;13.13;8.40;;;;;;;;;;7395052;19;20464;-77
2022/05/07 03:36:13;;;;;;;8.70;7.75;;;;;;;;;;7393571;19;20078;-78
2022/05/07 03:38:39;;;;;;;13.77;8.80;;;;;;;;;;7396139;19;20437;-78
2022/05/07 03:41:04;;;;;;;11.35;8.38;;;;;;;;;;7386032;19;20003;-77
2022/05/07 03:43:30;;;;;;;11.48;8.75;;;;;;;;;;7391849;19;20031;-78
2022/05/07 03:45:55;;;;;;;10.85;8.40;;;;;;;;;;7397526;19;20006;-77
2022/05/07 03:48:20;;;;;;;11.63;8.90;;;;;;;;;;7391715;19;20003;-78
2022/05/07 03:50:46;;;;;;;12.15;8.77;;;;;;;;;;7396784;19;20003;-78
2022/05/07 03:53:29;;;;;;;11.57;9.30;;;;;;;;;;7393485;19;20014;-77
2022/05/07 03:55:55;;;;;;;13.55;8.93;;;;;;;;;;7402141;19;20393;-78
2022/05/07 03:58:20;;;;;;;10.68;8.00;;;;;;;;;;7388489;19;20681;-78
2022/05/07 04:00:46;;;;;;;10.88;8.05;;;;;;;;;;7388536;19;20015;-78
2022/05/07 04:03:12;;;;;;;10.77;7.50;;;;;;;;;;7387964;19;20066;-78
2022/05/07 04:05:38;;;;;;;10.75;8.55;;;;;;;;;;7386351;19;20021;-78
2022/05/07 04:08:04;;;;;;;10.82;8.18;;;;;;;;;;7388250;19;20030;-78
2022/05/07 04:10:29;;;;;;;9.80;8.00;;;;;;;;;;7387893;19;20002;-78
2022/05/07 04:12:54;;;;;;;16.75;8.90;;;;;;;;;;7394334;19;20074;-79
2022/05/07 04:15:21;;;;;;;12.20;8.40;;;;;;;;;;7394862;19;20013;-78
2022/05/07 04:17:47;;;;;;;10.15;8.25;;;;;;;;;;7390540;19;19998;-78
2022/05/07 04:20:13;;;;;;;10.70;8.90;;;;;;;;;;7388121;19;20009;-78
2022/05/07 04:22:38;;;;;;;15.32;9.57;;;;;;;;;;7390076;19;20018;-79
2022/05/07 04:25:05;;;;;;;16.17;9.40;;;;;;;;;;7394278;19;20463;-78
2022/05/07 04:27:30;;;;;;;13.15;10.52;;;;;;;;;;7390471;19;20113;-78
2022/05/07 04:29:57;;;;;;;13.18;10.38;;;;;;;;;;7389206;19;20038;-78
2022/05/07 04:32:25;;;;;;;12.70;9.75;;;;;;;;;;7395319;19;20014;-78
2022/05/07 04:34:51;;;;;;;15.57;10.77;;;;;;;;;;7393187;19;20010;-78
2022/05/07 04:37:16;;;;;;;11.60;8.50;;;;;;;;;;7395338;19;20030;-78
2022/05/07 04:39:42;;;;;;;15.50;10.45;;;;;;;;;;7392247;19;20012;-78
2022/05/07 04:42:07;;;;;;;13.57;10.43;;;;;;;;;;7392979;19;20014;-78
2022/05/07 04:44:33;;;;;;;12.65;10.00;;;;;;;;;;7395216;19;20018;-78
2022/05/07 04:46:59;;;;;;;13.52;9.48;;;;;;;;;;7390170;19;20011;-78
2022/05/07 04:49:24;;;;;;;12.80;9.70;;;;;;;;;;7392365;19;20002;-78
2022/05/07 04:51:50;;;;;;;12.65;10.43;;;;;;;;;;7390777;19;20014;-78
2022/05/07 04:54:20;;;;;;;10.93;8.98;;;;;;;;;;7390746;19;20007;-77
2022/05/07 04:56:49;;;;;;;13.35;9.82;;;;;;;;;;7388996;19;19998;-77
2022/05/07 04:59:15;;;;;;;12.27;8.85;;;;;;;;;;7388401;19;20003;-76
2022/05/07 05:01:41;;;;;;;12.48;9.25;;;;;;;;;;7386622;19;20356;-77
2022/05/07 05:04:06;;;;;;;14.20;10.10;;;;;;;;;;7377053;19;20019;-77
2022/05/07 05:06:32;;;;;;;21.25;10.95;;;;;;;;;;7385666;19;20018;-76
2022/05/07 05:08:57;;;;;;;11.52;9.60;;;;;;;;;;7385184;19;20018;-77
2022/05/07 05:11:22;;;;;;;15.48;10.60;;;;;;;;;;7388342;19;20425;-76
2022/05/07 05:13:48;;;;;;;11.55;9.35;;;;;;;;;;7390129;19;20372;-76
2022/05/07 05:16:13;;;;;;;15.65;9.65;;;;;;;;;;7391268;19;20029;-76
2022/05/07 05:18:39;;;;;;;13.45;10.32;;;;;;;;;;7392760;19;20025;-77
2022/05/07 05:21:04;;;;;;;14.40;10.63;;;;;;;;;;7387356;19;20014;-77
2022/05/07 05:23:30;;;;;;;10.73;7.93;;;;;;;;;;7389849;19;20009;-77
2022/05/07 05:25:56;;;;;;;13.73;10.40;;;;;;;;;;7389302;19;20034;-77
2022/05/07 05:28:21;;;;;;;12.75;10.20;;;;;;;;;;7388097;19;20010;-78
2022/05/07 05:30:51;;;;;;;13.02;9.77;;;;;;;;;;7386787;19;20115;-77
2022/05/07 05:33:17;;;;;;;13.05;10.00;;;;;;;;;;7388151;19;20014;-77
2022/05/07 05:35:42;;;;;;;14.45;10.80;;;;;;;;;;7388386;19;20032;-77
2022/05/07 05:38:07;;;;;;;13.15;9.40;;;;;;;;;;7388159;19;20103;-77
2022/05/07 05:40:33;;;;;;;11.10;8.70;;;;;;;;;;7384525;19;20338;-77
2022/05/07 05:42:58;;;;;;;10.63;7.47;;;;;;;;;;7389494;19;20034;-77
2022/05/07 05:45:23;;;;;;;11.20;8.35;;;;;;;;;;7389028;19;20062;-77
2022/05/07 05:47:49;;;;;;;13.93;9.15;;;;;;;;;;7387411;19;20162;-77
2022/05/07 05:50:14;;;;;;;12.43;9.48;;;;;;;;;;7383750;19;20487;-77
2022/05/07 05:52:40;;;;;;;11.23;8.50;;;;;;;;;;7387805;19;20015;-77
2022/05/07 05:55:05;;;;;;;11.82;8.48;;;;;;;;;;7385977;19;19999;-77
2022/05/07 05:57:31;;;;;;;11.63;8.57;;;;;;;;;;7387214;19;20010;-77
2022/05/07 05:59:56;;;;;;;13.02;10.02;;;;;;;;;;7388153;19;20352;-77
2022/05/07 06:02:22;;;;;;;11.82;9.13;;;;;;;;;;7388146;19;20013;-77
2022/05/07 06:04:48;;;;;;;10.32;8.27;;;;;;;;;;7388615;19;20081;-76
2022/05/07 06:07:13;;;;;;;11.80;8.98;;;;;;;;;;7382378;19;20047;-76
2022/05/07 06:09:39;;;;;;;11.70;9.52;;;;;;;;;;7386651;19;20010;-77
2022/05/07 06:12:04;;;;;;;12.35;9.35;;;;;;;;;;7390196;19;20010;-77
2022/05/07 06:14:30;;;;;;;11.63;8.93;;;;;;;;;;7391316;19;20006;-76
2022/05/07 06:16:55;;;;;;;9.50;7.80;;;;;;;;;;7389568;19;20011;-76
2022/05/07 06:19:20;;;;;;;11.43;8.77;;;;;;;;;;7389107;19;20345;-77
2022/05/07 06:21:46;;;;;;;13.80;9.45;;;;;;;;;;7386295;19;20036;-78
2022/05/07 06:29:39;;;;;;;12.90;9.70;;;;;;;;;;7388758;19;20021;-79
2022/05/07 06:32:04;;;;;;;10.35;8.55;;;;;;;;;;7384859;19;20014;-77
2022/05/07 06:34:30;;;;;;;11.18;8.48;;;;;;;;;;7372843;19;20138;-77
2022/05/07 06:36:57;;;;;;;11.90;9.27;;;;;;;;;;7378384;19;20399;-76
2022/05/07 06:39:23;;;;;;;11.88;9.23;;;;;;;;;;7384112;19;20007;-76
2022/05/07 06:41:51;;;;;;;12.35;8.63;;;;;;;;;;7380683;19;20027;-77
2022/05/07 06:44:17;;;;;;;10.50;8.60;;;;;;;;;;7384248;19;20074;-77
2022/05/07 06:46:42;;;;;;;11.30;9.07;;;;;;;;;;7381278;19;20014;-76
2022/05/07 06:49:07;;;;;;;11.85;8.45;;;;;;;;;;7383866;19;19998;-78
2022/05/07 06:51:34;;;;;;;11.40;8.73;;;;;;;;;;7381051;19;20002;-77
2022/05/07 06:53:59;;;;;;;11.52;8.48;;;;;;;;;;7380057;19;20002;-78
2022/05/07 06:56:24;;;;;;;9.82;8.10;;;;;;;;;;7382546;19;20478;-77
2022/05/07 06:58:50;;;;;;;10.75;7.97;;;;;;;;;;7385803;19;20025;-76
2022/05/07 07:01:15;;;;;;;10.25;7.88;;;;;;;;;;7379747;19;20006;-76
2022/05/07 07:03:40;;;;;;;16.40;7.80;;;;;;;;;;7387635;19;20010;-76
2022/05/07 07:06:06;;;;;;;10.32;7.80;;;;;;;;;;7390465;19;20077;-76
2022/05/07 07:08:31;;;;;;;10.68;7.97;;;;;;;;;;7393999;19;20082;-76
2022/05/07 07:10:57;;;;;;;10.82;7.88;;;;;;;;;;7386147;19;20011;-76
2022/05/07 07:13:22;;;;;;;9.45;7.80;;;;;;;;;;7384861;19;20012;-76
2022/05/07 07:15:48;;;;;;;9.77;7.78;;;;;;;;;;7387899;19;20010;-77
2022/05/07 07:18:13;;;;;;;10.68;7.88;;;;;;;;;;7385872;19;20409;-77
2022/05/07 07:20:41;;;;;;;9.88;8.18;;;;;;;;;;7386206;19;20006;-77
2022/05/07 07:23:11;;;;;;;10.68;8.23;;;;;;;;;;7388636;19;20010;-77
2022/05/07 07:25:40;;;;;;;14.32;9.02;;;;;;;;;;7389359;19;20010;-77
2022/05/07 07:28:06;;;;;;;11.07;8.88;;;;;;;;;;7387659;19;20014;-77
2022/05/07 07:30:32;;;;;;;12.98;9.43;;;;;;;;;;7391508;19;20118;-77
2022/05/07 07:32:57;;;;;;;15.20;10.73;;;;;;;;;;7391631;19;20014;-77
2022/05/07 07:35:22;;;;;;;13.25;10.52;;;;;;;;;;7395788;19;19995;-77
2022/05/07 07:37:48;;;;;;;15.32;10.38;;;;;;;;;;7395664;19;20034;-77
2022/05/07 07:40:13;;;;;;;11.38;9.13;;;;;;;;;;7389303;19;20489;-78
2022/05/07 07:42:42;;;;;;;14.57;10.70;;;;;;;;;;7392997;19;20010;-78
2022/05/07 07:47:56;;;;;;;11.23;9.00;;;;;;;;;;7388815;19;20021;-77
2022/05/07 07:50:26;;;;;;;10.80;9.10;;;;;;;;;;7387903;19;20002;-77
2022/05/07 07:52:53;;;;;;;12.75;9.38;;;;;;;;;;7386811;19;20013;-76
2022/05/07 07:55:19;;;;;;;12.90;9.70;;;;;;;;;;7389181;19;20010;-77
2022/05/07 07:57:44;;;;;;;14.18;8.60;;;;;;;;;;7388008;19;20026;-77
2022/05/07 08:00:10;;;;;;;12.77;9.15;;;;;;;;;;7387334;19;20316;-76
2022/05/07 08:02:46;;;;;;;11.40;8.80;;;;;;;;;;7390270;19;20026;-76
2022/05/07 08:05:11;;;;;;;10.60;8.60;;;;;;;;;;7387952;19;20030;-78
2022/05/07 08:13:08;;;;;;;8.82;7.72;;;;;;;;;;7385551;19;20022;-77
2022/05/07 08:15:33;;;;;;;9.93;7.35;;;;;;;;;;7389137;19;20420;-77
2022/05/07 08:17:59;;;;;;;11.45;8.05;;;;;;;;;;7389106;19;20014;-76
2022/05/07 08:20:24;;;;;;;10.75;8.23;;;;;;;;;;7387221;19;20023;-77
2022/05/07 08:22:49;;;;;;;11.23;8.40;;;;;;;;;;7390374;19;20123;-77
2022/05/07 08:25:14;;;;;;;9.88;8.00;;;;;;;;;;7388534;19;20318;-77
2022/05/07 08:27:40;;;;;;;12.38;8.13;;;;;;;;;;7385068;19;20018;-77
2022/05/07 08:30:06;;;;;;;9.05;7.45;;;;;;;;;;7387351;19;20003;-76
2022/05/07 08:32:31;;;;;;;9.90;7.78;;;;;;;;;;7385079;19;20014;-76
2022/05/07 08:34:56;;;;;;;10.20;7.15;;;;;;;;;;7387072;19;20034;-76
2022/05/07 08:37:21;;;;;;;10.30;7.80;;;;;;;;;;7386158;19;20014;-77
2022/05/07 08:39:47;;;;;;;10.38;8.43;;;;;;;;;;7390783;19;20350;-77
2022/05/07 08:42:12;;;;;;;10.77;7.97;;;;;;;;;;7387380;19;20115;-78
2022/05/07 08:44:38;;;;;;;8.90;7.60;;;;;;;;;;7385281;19;20007;-78
2022/05/07 08:47:04;;;;;;;9.45;7.30;;;;;;;;;;7388190;19;20086;-77
2022/05/07 08:49:29;;;;;;;9.80;7.25;;;;;;;;;;7387892;19;20034;-77
2022/05/07 08:51:55;;;;;;;11.15;7.20;;;;;;;;;;7387709;19;20010;-77
2022/05/07 08:54:20;;;;;;;8.65;7.32;;;;;;;;;;7384166;19;20027;-77
2022/05/07 08:56:46;;;;;;;10.52;7.65;;;;;;;;;;7389289;19;20029;-77
2022/05/07 08:59:11;;;;;;;8.07;7.10;;;;;;;;;;7385697;19;20015;-77
2022/05/07 09:01:37;;;;;;;9.52;7.88;;;;;;;;;;7384762;19;20014;-78
2022/05/07 09:04:09;;;;;;;9.63;7.60;;;;;;;;;;7386982;19;20102;-77
2022/05/07 09:06:35;;;;;;;9.30;7.95;;;;;;;;;;7387329;19;20033;-77
2022/05/07 09:09:04;;;;;;;13.02;7.25;;;;;;;;;;7385569;19;20047;-76
2022/05/07 09:11:39;;;;;;;7.85;7.05;;;;;;;;;;7385620;19;20011;-77
2022/05/07 09:14:05;;;;;;;7.70;6.88;;;;;;;;;;7385046;19;20443;-76
2022/05/07 09:16:46;;;;;;;10.60;6.90;;;;;;;;;;7385945;19;20029;-77
2022/05/07 09:19:28;;;;;;;7.85;7.05;;;;;;;;;;7386000;19;20011;-77
2022/05/07 09:22:07;;;;;;;9.30;7.20;;;;;;;;;;7386167;19;20011;-77
2022/05/07 09:24:32;;;;;;;11.75;9.00;;;;;;;;;;7387989;19;20042;-77
2022/05/07 09:26:58;;;;;;;8.20;7.22;;;;;;;;;;7385487;19;20006;-77
2022/05/07 09:29:26;;;;;;;9.93;6.97;;;;;;;;;;7386030;19;20058;-77
2022/05/07 09:31:53;;;;;;;11.38;7.88;;;;;;;;;;7387457;19;20007;-77
2022/05/07 09:37:20;;;;;;;10.88;7.05;;;;;;;;;;7387141;19;20054;-77
2022/05/07 09:39:51;;;;;;;9.25;6.78;;;;;;;;;;7386906;19;20033;-78
2022/05/07 09:42:24;;;;;;;10.85;6.70;;;;;;;;;;7383763;19;20003;-78
2022/05/07 09:44:49;;;;;;;7.43;6.50;;;;;;;;;;7388307;19;20010;-77
2022/05/07 09:47:15;;;;;;;8.23;6.70;;;;;;;;;;7390398;19;20054;-78
2022/05/07 09:50:20;;;;;;;9.57;6.38;;;;;;;;;;7395190;19;20015;-78
2022/05/07 09:52:28;;;;;;;6.53;5.82;;;;;;;;;;7395358;19;20461;-78
2022/05/07 09:57:38;;;;;;;6.15;5.50;;;;;;;;;;7391106;19;20013;-78
2022/05/07 10:00:10;;;;;;;7.35;5.57;;;;;;;;;;7388641;19;20010;-78
2022/05/07 10:02:54;;;;;;;7.95;5.45;;;;;;;;;;7392428;19;20033;-78
2022/05/07 10:05:31;;;;;;;6.03;5.40;;;;;;;;;;7391254;19;20026;-78
2022/05/07 10:08:26;;;;;;;6.10;5.50;;;;;;;;;;7389673;19;20030;-78
2022/05/07 10:10:52;;;;;;;6.38;5.28;;;;;;;;;;7385012;19;20082;-77
2022/05/07 10:13:18;;;;;;;5.22;4.72;;;;;;;;;;7388749;19;19998;-77
2022/05/07 10:15:45;;;;;;;5.53;4.93;;;;;;;;;;7383294;19;20074;-77
2022/05/07 10:18:14;;;;;;;9.27;4.93;;;;;;;;;;7385519;19;20006;-77
2022/05/07 10:20:45;;;;;;;5.85;4.70;;;;;;;;;;7383008;19;20018;-77
2022/05/07 10:23:12;;;;;;;9.55;4.75;;;;;;;;;;7386820;19;20077;-77
2022/05/07 10:25:39;;;;;;;5.95;4.35;;;;;;;;;;7387546;19;20022;-77
2022/05/07 10:28:14;;;;;;;7.40;5.47;;;;;;;;;;7381296;19;20014;-77
2022/05/07 10:30:51;;;;;;;8.18;6.03;;;;;;;;;;7382930;19;20010;-76
2022/05/07 10:33:18;;;;;;;5.57;5.07;;;;;;;;;;7384874;19;20392;-78
2022/05/07 10:35:49;;;;;;;7.78;5.22;;;;;;;;;;7383963;19;20130;-77
2022/05/07 10:38:26;;;;;;;5.53;5.03;;;;;;;;;;7385577;19;20020;-77
2022/05/07 10:40:54;;;;;;;5.13;4.43;;;;;;;;;;7389141;19;20475;-77
2022/05/07 10:43:28;;;;;;;4.60;4.15;;;;;;;;;;7396284;19;20014;-77
2022/05/07 10:45:56;;;;;;;5.22;4.20;;;;;;;;;;7393427;19;20006;-77
2022/05/07 10:48:21;;;;;;;4.30;3.90;;;;;;;;;;7393556;19;20007;-77
2022/05/07 10:50:55;;;;;;;6.50;4.50;;;;;;;;;;7394545;19;20139;-77
2022/05/07 10:53:21;;;;;;;5.10;4.60;;;;;;;;;;7398961;19;20125;-78
2022/05/07 10:55:49;;;;;;;4.90;4.25;;;;;;;;;;7391456;19;20036;-78
2022/05/07 10:58:15;;;;;;;5.38;4.80;;;;;;;;;;7390369;19;20018;-77
2022/05/07 11:00:40;;;;;;;7.13;5.90;;;;;;;;;;7389857;19;20087;-77
2022/05/07 11:03:07;;;;;;;5.05;4.55;;;;;;;;;;7391009;19;20030;-77
2022/05/07 11:05:34;;;;;;;6.10;4.72;;;;;;;;;;7391380;19;20018;-75
2022/05/07 11:08:02;;;;;;;8.07;6.80;;;;;;;;;;7391343;19;20030;-76
2022/05/07 11:10:27;;;;;;;4.47;3.78;;;;;;;;;;7390846;19;20014;-75
2022/05/07 11:13:12;;;;;;;4.45;3.92;;;;;;;;;;7393304;19;20010;-75
2022/05/07 11:15:38;;;;;;;4.05;3.65;;;;;;;;;;7392104;19;20111;-78
2022/05/07 11:18:14;;;;;;;4.07;3.50;;;;;;;;;;7391873;19;20085;-75
2022/05/07 11:20:41;;;;;;;4.13;3.55;;;;;;;;;;7390448;19;20003;-77
2022/05/07 11:23:11;;;;;;;4.82;3.88;;;;;;;;;;7394366;19;20036;-78
2022/05/07 11:25:36;;;;;;;4.85;4.38;;;;;;;;;;7392065;19;20038;-77
2022/05/07 11:28:01;;;;;;;4.03;3.45;;;;;;;;;;7390778;19;20010;-78
2022/05/07 11:30:27;;;;;;;4.82;3.92;;;;;;;;;;7390129;19;20010;-78
2022/05/07 11:32:54;;;;;;;4.68;3.58;;;;;;;;;;7392679;19;20010;-76
2022/05/07 11:35:24;;;;;;;3.55;3.20;;;;;;;;;;7390631;19;20018;-75
2022/05/07 11:37:49;;;;;;;3.53;2.83;;;;;;;;;;7390883;19;20100;-78
2022/05/07 11:40:26;;;;;;;2.55;2.35;;;;;;;;;;7387836;19;20014;-77
2022/05/07 11:45:25;;;;;;;2.72;2.53;;;;;;;;;;7392858;19;20125;-78
2022/05/07 11:45:37;;;;;;;3.05;2.75;;;;;;;;;;7388855;19;20089;-78
2022/05/07 11:48:17;;;;;;;3.20;2.90;;;;;;;;;;7390110;19;20084;-78
2022/05/07 11:50:53;;;;;;;2.80;2.60;;;;;;;;;;7389913;19;20078;-77
2022/05/07 11:53:21;;;;;;;3.63;3.30;;;;;;;;;;7393187;19;20007;-76
2022/05/07 11:55:48;;;;;;;2.65;2.45;;;;;;;;;;7389561;19;20045;-78
2022/05/07 11:58:18;;;;;;;4.10;3.22;;;;;;;;;;7389021;19;20027;-79
2022/05/07 12:00:45;;;;;;;4.20;3.03;;;;;;;;;;7387896;19;20026;-76
2022/05/07 12:03:11;;;;;;;2.95;2.65;;;;;;;;;;7392613;19;20003;-78
2022/05/07 12:05:40;;;;;;;2.80;2.40;;;;;;;;;;7390100;19;20418;-78
2022/05/07 12:08:13;;;;;;;2.70;2.50;;;;;;;;;;7389983;19;20014;-79
2022/05/07 12:10:38;;;;;;;2.90;2.70;;;;;;;;;;7389078;19;20018;-77
2022/05/07 12:13:04;;;;;;;5.75;2.22;;;;;;;;;;7392206;19;20002;-78
2022/05/07 12:18:14;;;;;;;2.63;2.42;;;;;;;;;;7390577;19;20017;-75
2022/05/07 12:20:39;;;;;;;2.30;2.10;;;;;;;;;;7388205;19;20074;-75
2022/05/07 12:31:16;;;;;;;2.78;2.55;;;;;;;;;;7389672;19;20018;-75
2022/05/07 12:33:41;;;;;;;4.40;3.10;;;;;;;;;;7390215;19;20452;-78
2022/05/07 12:36:07;;;;;;;5.20;2.67;;;;;;;;;;7389975;19;20022;-78
2022/05/07 12:38:32;;;;;;;2.65;2.45;;;;;;;;;;7389670;19;20045;-75
2022/05/07 12:40:57;;;;;;;3.35;2.80;;;;;;;;;;7388580;19;19991;-76
2022/05/07 12:43:23;;;;;;;3.97;2.28;;;;;;;;;;7389410;19;20019;-78
2022/05/07 12:45:49;;;;;;;2.72;2.53;;;;;;;;;;7386849;19;20050;-76
2022/05/07 12:48:15;;;;;;;2.45;2.20;;;;;;;;;;7388147;19;20002;-76
2022/05/07 12:50:40;;;;;;;2.38;2.17;;;;;;;;;;7386181;19;20095;-75
2022/05/07 12:53:06;;;;;;;2.67;2.47;;;;;;;;;;7388293;19;20122;-76
2022/05/07 12:55:32;;;;;;;5.10;4.50;;;;;;;;;;7388713;19;20018;-76
2022/05/07 12:57:57;;;;;;;6.80;4.40;;;;;;;;;;7388270;19;20015;-76
2022/05/07 13:00:23;;;;;;;3.97;3.00;;;;;;;;;;7386548;19;19998;-76
2022/05/07 13:02:52;;;;;;;2.90;2.60;;;;;;;;;;7386036;19;20078;-77
2022/05/07 13:05:17;;;;;;;2.50;2.22;;;;;;;;;;7388984;19;20491;-76
2022/05/07 13:07:43;;;;;;;2.70;2.45;;;;;;;;;;7384638;19;20018;-76
2022/05/07 13:10:09;;;;;;;4.13;2.63;;;;;;;;;;7389621;19;20006;-76
2022/05/07 13:12:36;;;;;;;2.63;2.30;;;;;;;;;;7387258;19;20293;-76
2022/05/07 13:15:01;;;;;;;2.72;2.53;;;;;;;;;;7389638;19;20002;-76
2022/05/07 13:17:27;;;;;;;2.55;2.35;;;;;;;;;;7386823;19;20089;-76
2022/05/07 13:19:52;;;;;;;2.45;2.15;;;;;;;;;;7388569;19;20440;-76
2022/05/07 13:22:18;;;;;;;2.58;2.30;;;;;;;;;;7384293;19;20010;-76
2022/05/07 13:24:43;;;;;;;2.30;2.10;;;;;;;;;;7387553;19;20010;-76
2022/05/07 13:27:08;;;;;;;2.42;2.22;;;;;;;;;;7387534;19;20007;-76
2022/05/07 13:29:34;;;;;;;2.40;2.15;;;;;;;;;;7389014;19;19998;-76
2022/05/07 13:31:59;;;;;;;3.25;2.45;;;;;;;;;;7386771;19;20435;-76
2022/05/07 13:34:25;;;;;;;2.20;2.05;;;;;;;;;;7387727;19;20003;-76
2022/05/07 13:36:50;;;;;;;2.00;1.90;;;;;;;;;;7386687;19;20010;-76
2022/05/07 13:39:15;;;;;;;2.20;1.88;;;;;;;;;;7388026;19;20034;-76
2022/05/07 13:41:41;;;;;;;2.20;2.00;;;;;;;;;;7386048;19;20041;-76
2022/05/07 13:44:10;;;;;;;2.60;2.20;;;;;;;;;;7386798;19;19998;-76
2022/05/07 13:46:39;;;;;;;2.42;2.22;;;;;;;;;;7387113;19;19995;-76
2022/05/07 13:49:04;;;;;;;2.15;1.95;;;;;;;;;;7386874;19;20090;-76
2022/05/07 13:51:30;;;;;;;2.03;1.85;;;;;;;;;;7385967;19;20378;-76
2022/05/07 13:53:57;;;;;;;2.10;1.90;;;;;;;;;;7388163;19;20034;-76
2022/05/07 13:56:22;;;;;;;1.58;1.48;;;;;;;;;;7388002;19;20371;-76
2022/05/07 13:58:48;;;;;;;1.60;1.50;;;;;;;;;;7387978;19;20022;-76
2022/05/07 14:01:13;;;;;;;1.70;1.60;;;;;;;;;;7386022;19;19995;-76
2022/05/07 14:03:39;;;;;;;1.88;1.50;;;;;;;;;;7385420;19;20065;-76
2022/05/07 14:06:05;;;;;;;1.80;1.50;;;;;;;;;;7387513;19;20348;-76
2022/05/07 14:08:30;;;;;;;1.23;1.20;;;;;;;;;;7387132;19;20093;-77
2022/05/07 14:10:55;;;;;;;1.63;1.20;;;;;;;;;;7385696;19;20006;-76
2022/05/07 14:13:21;;;;;;;1.10;1.10;;;;;;;;;;7386100;19;20038;-77
2022/05/07 14:15:46;;;;;;;0.90;0.90;;;;;;;;;;7387966;19;20391;-76
2022/05/07 14:18:11;;;;;;;1.67;1.20;;;;;;;;;;7386238;19;20713;-77
2022/05/07 14:20:36;;;;;;;1.83;1.13;;;;;;;;;;7384312;19;20058;-76
2022/05/07 14:23:06;;;;;;;1.13;0.80;;;;;;;;;;7384499;19;20036;-77
2022/05/07 14:25:32;;;;;;;1.08;1.08;;;;;;;;;;7385968;19;20005;-76
2022/05/07 14:27:57;;;;;;;1.80;1.50;;;;;;;;;;7385849;19;20389;-77
2022/05/07 14:30:22;;;;;;;1.60;1.50;;;;;;;;;;7387338;19;20005;-77
2022/05/07 14:32:48;;;;;;;2.10;1.90;;;;;;;;;;7386012;19;20017;-77
2022/05/07 14:35:13;;;;;;;4.30;2.50;;;;;;;;;;7387611;19;20467;-77
2022/05/07 14:37:39;;;;;;;2.17;1.98;;;;;;;;;;7386497;19;20443;-77
2022/05/07 14:40:50;;;;;;;2.33;2.13;;;;;;;;;;7385767;19;20014;-77
2022/05/07 14:42:53;;;;;;;7.70;2.42;;;;;;;;;;7384728;19;20046;-76
2022/05/07 14:45:19;;;;;;;2.70;2.30;;;;;;;;;;7386624;19;20009;-76
2022/05/07 14:47:44;;;;;;;3.83;2.35;;;;;;;;;;7385169;19;20062;-76
2022/05/07 14:50:09;;;;;;;2.85;1.70;;;;;;;;;;7385831;19;20011;-77
2022/05/07 14:52:35;;;;;;;4.10;2.25;;;;;;;;;;7384273;19;20103;-76
2022/05/07 14:55:00;;;;;;;10.35;2.25;;;;;;;;;;7386328;19;20344;-76
2022/05/07 14:57:26;;;;;;;3.25;2.28;;;;;;;;;;7384814;19;20044;-76
2022/05/07 14:59:51;;;;;;;2.53;2.22;;;;;;;;;;7384173;19;19999;-76
2022/05/07 15:02:16;;;;;;;2.75;2.03;;;;;;;;;;7383233;19;20415;-77
2022/05/07 15:04:42;;;;;;;2.90;2.60;;;;;;;;;;7384502;19;20026;-76
2022/05/07 15:07:08;;;;;;;2.70;2.00;;;;;;;;;;7385599;19;20011;-76
2022/05/07 15:12:17;;;;;;;3.03;2.58;;;;;;;;;;7385381;19;20019;-76
2022/05/07 15:14:45;;;;;;;3.40;2.28;;;;;;;;;;7385979;19;20018;-77
2022/05/07 15:17:10;;;;;;;2.70;2.50;;;;;;;;;;7385765;19;20036;-76